Time;durP1;ratioP1;P1;durP2;ratioP2;P2;SDS_P1;SDS_P2;PMS_P1;PMS_P2;Temp;Humidity;BMP_temperature;BMP_pressure;BME280_temperature;BME280_humidity;BME280_pressure;Samples;Min_cycle;Max_cycle;Signal;HPM_P1;HPM_P2
2022/11/30 00:00:24;;;;;;;;;;;;;;;19.43;47.56;101778.56;5141584;27;20031;-41
2022/11/30 00:02:52;;;;;;;;;;;;;;;19.43;47.57;101778.56;5146371;27;19923;-41
2022/11/30 00:05:18;;;;;;;;;;;;;;;19.43;47.67;101777.72;5141749;27;19923;-41
2022/11/30 00:07:44;;;;;;;;;;;;;;;19.43;47.98;101783.25;5119761;28;19923;-43
2022/11/30 00:10:10;;;;;;;;;;;;;;;19.43;47.58;101778.56;5121853;27;19996;-42
2022/11/30 00:12:35;;;;;;;;;;;;;;;19.42;47.62;101776.88;5137941;27;19923;-43
2022/11/30 00:15:01;;;;;;;;;;;;;;;19.43;47.89;101778.56;5140098;27;19930;-44
2022/11/30 00:17:26;;;;;;;;;;;;;;;19.42;47.56;101776.06;5139436;27;19932;-41
2022/11/30 00:19:52;;;;;;;;;;;;;;;19.41;47.59;101766.94;5134721;27;19924;-43
2022/11/30 00:22:17;;;;;;;;;;;;;;;19.43;47.92;101778.56;5142405;27;19923;-45
2022/11/30 00:24:43;;;;;;;;;;;;;;;19.42;47.76;101778.81;5142161;27;19930;-42
2022/11/30 00:27:09;;;;;;;;;;;;;;;19.42;47.88;101778.81;5145277;27;19923;-41
2022/11/30 00:29:34;;;;;;;;;;;;;;;19.42;47.55;101770.53;5141014;27;20464;-41
2022/11/30 00:32:00;;;;;;;;;;;;;;;19.42;47.90;101776.88;5137546;27;19948;-41
2022/11/30 00:34:25;;;;;;;;;;;;;;;19.42;47.98;101776.06;5144883;27;19923;-41
2022/11/30 00:36:51;;;;;;;;;;;;;;;19.43;47.59;101774.94;5137281;27;19936;-42
2022/11/30 00:39:17;;;;;;;;;;;;;;;19.41;47.74;101775.22;5138900;27;20295;-42
2022/11/30 00:41:42;;;;;;;;;;;;;;;19.41;47.85;101769.69;5139936;27;19930;-41
2022/11/30 00:44:08;;;;;;;;;;;;;;;19.41;47.60;101774.41;5142005;27;20521;-44
2022/11/30 00:46:33;;;;;;;;;;;;;;;19.41;47.83;101772.47;5139497;27;19923;-43
2022/11/30 00:48:59;;;;;;;;;;;;;;;19.40;47.60;101770.81;5139208;27;19931;-42
2022/11/30 00:51:24;;;;;;;;;;;;;;;19.42;47.67;101776.06;5139488;27;19984;-44
2022/11/30 00:53:50;;;;;;;;;;;;;;;19.40;47.78;101772.75;5136775;27;19929;-42
2022/11/30 00:56:16;;;;;;;;;;;;;;;19.40;47.87;101781.03;5135883;27;19931;-43
2022/11/30 00:58:41;;;;;;;;;;;;;;;19.40;47.84;101779.09;5139185;27;19930;-44
2022/11/30 01:01:07;;;;;;;;;;;;;;;19.40;47.65;101776.31;5142875;27;19931;-41
2022/11/30 01:03:33;;;;;;;;;;;;;;;19.40;48.00;101770.81;5136381;27;19924;-42
2022/11/30 01:06:00;;;;;;;;;;;;;;;19.40;47.63;101779.09;5145237;27;19930;-42
2022/11/30 01:08:25;;;;;;;;;;;;;;;19.40;47.91;101767.22;5139628;27;20402;-44
2022/11/30 01:10:53;;;;;;;;;;;;;;;19.40;47.60;101772.75;5139667;27;19923;-42
2022/11/30 01:13:18;;;;;;;;;;;;;;;19.40;47.99;101775.50;5140780;27;20431;-41
2022/11/30 01:15:44;;;;;;;;;;;;;;;19.41;47.68;101774.41;5140719;27;19923;-44
2022/11/30 01:18:09;;;;;;;;;;;;;;;19.40;47.70;101783.78;5142383;27;20290;-41
2022/11/30 01:20:38;;;;;;;;;;;;;;;19.40;47.73;101776.31;5119965;27;20019;-41
2022/11/30 01:23:03;;;;;;;;;;;;;;;19.39;47.84;101782.97;5141087;27;20129;-41
2022/11/30 01:25:29;;;;;;;;;;;;;;;19.39;47.94;101785.72;5144312;27;19935;-42
2022/11/30 01:27:54;;;;;;;;;;;;;;;19.39;47.79;101785.72;5139563;27;19930;-41
2022/11/30 01:30:20;;;;;;;;;;;;;;;19.40;47.91;101786.56;5143429;27;19954;-44
2022/11/30 01:32:46;;;;;;;;;;;;;;;19.39;48.01;101782.97;5137541;27;20007;-41
2022/11/30 01:35:11;;;;;;;;;;;;;;;19.39;47.62;101791.25;5147064;27;19922;-41
2022/11/30 01:37:37;;;;;;;;;;;;;;;19.38;47.52;101788.72;5139987;27;19931;-41
2022/11/30 01:40:02;;;;;;;;;;;;;;;19.39;47.92;101794.00;5140848;27;19923;-41
2022/11/30 01:42:28;;;;;;;;;;;;;;;19.38;47.80;101780.44;5137063;27;20359;-42
2022/11/30 01:44:55;;;;;;;;;;;;;;;19.38;47.70;101781.25;5138852;27;19927;-44
2022/11/30 01:47:21;;;;;;;;;;;;;;;19.39;47.65;101784.88;5121195;27;20010;-42
2022/11/30 01:49:48;;;;;;;;;;;;;;;19.39;47.91;101787.66;5137135;27;20387;-42
2022/11/30 01:52:16;;;;;;;;;;;;;;;19.37;47.57;101793.41;5139542;27;20014;-41
2022/11/30 01:54:43;;;;;;;;;;;;;;;19.38;47.98;101795.06;5138776;27;19984;-42
2022/11/30 01:57:19;;;;;;;;;;;;;;;19.38;47.86;101791.47;5144928;27;20394;-41
2022/11/30 01:59:45;;;;;;;;;;;;;;;19.38;47.50;101797.84;5138445;27;20010;-41
2022/11/30 02:02:11;;;;;;;;;;;;;;;19.38;47.49;101799.78;5138228;27;19924;-41
2022/11/30 02:04:36;;;;;;;;;;;;;;;19.39;47.87;101798.69;5133276;27;19927;-41
2022/11/30 02:07:02;;;;;;;;;;;;;;;19.38;47.76;101797.00;5137505;27;19931;-41
2022/11/30 02:09:28;;;;;;;;;;;;;;;19.37;47.75;101796.19;5120568;27;19950;-41
2022/11/30 02:11:53;;;;;;;;;;;;;;;19.37;47.84;101793.41;5144333;27;19923;-43
2022/11/30 02:14:22;;;;;;;;;;;;;;;19.37;47.93;101798.13;5143355;27;20302;-41
2022/11/30 02:16:53;;;;;;;;;;;;;;;19.37;47.73;101793.41;5120314;27;20337;-42
2022/11/30 02:19:38;;;;;;;;;;;;;;;19.37;48.08;101796.19;5138981;27;19923;-43
2022/11/30 02:22:06;;;;;;;;;;;;;;;19.37;47.60;101792.59;5118134;27;20498;-42
2022/11/30 02:24:36;;;;;;;;;;;;;;;19.37;47.72;101790.66;5140062;27;20018;-41
2022/11/30 02:27:06;;;;;;;;;;;;;;;19.37;47.75;101787.06;5141093;27;20316;-43
2022/11/30 02:29:41;;;;;;;;;;;;;;;19.36;47.62;101786.22;5143105;27;19949;-41
2022/11/30 02:32:15;;;;;;;;;;;;;;;19.36;47.68;101783.47;5122104;27;20022;-44
2022/11/30 02:34:41;;;;;;;;;;;;;;;19.36;47.87;101785.41;5138006;27;20002;-42
2022/11/30 02:37:07;;;;;;;;;;;;;;;19.37;47.93;101778.78;5138998;27;20343;-42
2022/11/30 02:39:32;;;;;;;;;;;;;;;19.37;47.51;101781.53;5140065;27;19988;-41
2022/11/30 02:41:58;;;;;;;;;;;;;;;19.36;47.73;101777.94;5138336;27;20043;-41
2022/11/30 02:44:23;;;;;;;;;;;;;;;19.36;47.53;101777.94;5133005;27;19984;-42
2022/11/30 02:46:55;;;;;;;;;;;;;;;19.37;47.86;101778.78;5136085;27;20078;-42
2022/11/30 02:49:24;;;;;;;;;;;;;;;19.35;47.72;101779.03;5137225;27;19954;-41
2022/11/30 02:51:50;;;;;;;;;;;;;;;19.37;48.02;101789.81;5134849;27;20410;-41
2022/11/30 02:54:16;;;;;;;;;;;;;;;19.35;47.82;101781.81;5135711;27;19923;-41
2022/11/30 02:56:42;;;;;;;;;;;;;;;19.35;47.55;101786.50;5116764;27;19923;-44
2022/11/30 02:59:08;;;;;;;;;;;;;;;19.35;47.67;101778.22;5137234;27;19969;-42
2022/11/30 03:01:33;;;;;;;;;;;;;;;19.35;47.51;101784.56;5140386;27;20350;-41
2022/11/30 03:03:59;;;;;;;;;;;;;;;19.35;47.96;101780.97;5134972;27;19932;-43
2022/11/30 03:06:24;;;;;;;;;;;;;;;19.36;47.64;101779.88;5136544;27;19935;-42
2022/11/30 03:08:50;;;;;;;;;;;;;;;19.35;47.88;101779.03;5141488;27;19923;-42
2022/11/30 03:11:16;;;;;;;;;;;;;;;19.35;47.74;101780.97;5142205;27;20390;-41
2022/11/30 03:13:41;;;;;;;;;;;;;;;19.34;47.55;101782.88;5145394;27;19923;-41
2022/11/30 03:16:07;;;;;;;;;;;;;;;19.35;47.40;101786.50;5141418;27;20336;-43
2022/11/30 03:18:33;;;;;;;;;;;;;;;19.34;47.63;101782.88;5143647;27;20082;-46
2022/11/30 03:20:58;;;;;;;;;;;;;;;19.35;47.96;101778.22;5140020;27;19977;-42
2022/11/30 03:23:24;;;;;;;;;;;;;;;19.34;47.94;101788.41;5138452;27;19930;-41
2022/11/30 03:25:49;;;;;;;;;;;;;;;19.35;47.69;101786.50;5133791;27;21567;-42
2022/11/30 03:28:15;;;;;;;;;;;;;;;19.34;47.95;101782.06;5138027;27;19923;-42
2022/11/30 03:30:46;;;;;;;;;;;;;;;19.34;47.87;101793.09;5136046;27;19931;-43
2022/11/30 03:33:12;;;;;;;;;;;;;;;19.33;47.93;101792.28;5140353;27;20330;-43
2022/11/30 03:35:37;;;;;;;;;;;;;;;19.34;47.64;101793.09;5134311;27;19931;-41
2022/11/30 03:38:03;;;;;;;;;;;;;;;19.33;47.57;101783.97;5139670;27;19923;-45
2022/11/30 03:40:29;;;;;;;;;;;;;;;19.34;47.71;101782.06;5142075;27;19924;-41
2022/11/30 03:42:54;;;;;;;;;;;;;;;19.33;47.91;101788.69;5140237;27;20359;-43
2022/11/30 03:45:20;;;;;;;;;;;;;;;19.34;47.95;101793.09;5135793;27;20082;-42
2022/11/30 03:47:45;;;;;;;;;;;;;;;19.33;47.87;101789.50;5134833;27;19923;-42
2022/11/30 03:50:11;;;;;;;;;;;;;;;19.33;47.73;101789.50;5140468;27;20416;-43
2022/11/30 03:52:37;;;;;;;;;;;;;;;19.32;47.88;101796.13;5135943;27;19928;-42
2022/11/30 03:55:02;;;;;;;;;;;;;;;19.33;47.63;101797.78;5133767;27;20363;-42
2022/11/30 03:57:28;;;;;;;;;;;;;;;19.34;47.84;101804.16;5134244;27;19923;-43
2022/11/30 03:59:53;;;;;;;;;;;;;;;19.34;47.69;101806.91;5139981;27;19975;-41
2022/11/30 04:02:19;;;;;;;;;;;;;;;19.33;47.56;101799.72;5138626;27;20381;-41
2022/11/30 04:04:45;;;;;;;;;;;;;;;19.33;47.58;101800.56;5138502;27;19938;-45
2022/11/30 04:07:11;;;;;;;;;;;;;;;19.32;47.68;101809.13;5137356;27;19931;-41
2022/11/30 04:09:36;;;;;;;;;;;;;;;19.32;47.75;101809.94;5138255;27;19931;-41
2022/11/30 04:12:02;;;;;;;;;;;;;;;19.32;47.76;101804.41;5140193;27;20276;-41
2022/11/30 04:14:28;;;;;;;;;;;;;;;19.32;47.90;101809.94;5136977;27;19931;-43
2022/11/30 04:16:53;;;;;;;;;;;;;;;19.32;47.57;101809.94;5140094;27;19931;-40
2022/11/30 04:19:19;;;;;;;;;;;;;;;19.32;47.57;101806.34;5135810;27;19924;-41
2022/11/30 04:21:44;;;;;;;;;;;;;;;19.32;47.65;101809.13;5140645;27;19924;-41
2022/11/30 04:24:10;;;;;;;;;;;;;;;19.32;47.55;101820.16;5137762;27;19931;-42
2022/11/30 04:26:35;;;;;;;;;;;;;;;19.31;47.64;101819.31;5141975;27;19929;-41
2022/11/30 04:29:01;;;;;;;;;;;;;;;19.32;47.67;101814.63;5145450;27;20403;-41
2022/11/30 04:31:29;;;;;;;;;;;;;;;19.31;47.89;101816.56;5141458;27;19931;-41
2022/11/30 04:33:55;;;;;;;;;;;;;;;19.31;47.94;101819.31;5140913;27;20084;-41
2022/11/30 04:36:21;;;;;;;;;;;;;;;19.30;47.72;101829.53;5138662;27;20312;-43
2022/11/30 04:38:46;;;;;;;;;;;;;;;19.32;47.64;101820.16;5143187;27;19923;-41
2022/11/30 04:41:12;;;;;;;;;;;;;;;19.30;47.59;101828.72;5140749;27;19927;-41
2022/11/30 04:43:37;;;;;;;;;;;;;;;19.30;47.94;101826.78;5119730;27;19955;-41
2022/11/30 04:46:03;;;;;;;;;;;;;;;19.31;47.64;101827.63;5138238;27;19939;-43
2022/11/30 04:48:29;;;;;;;;;;;;;;;19.30;47.63;101829.53;5142882;27;20010;-41
2022/11/30 04:50:59;;;;;;;;;;;;;;;19.29;47.84;101829.78;5142305;27;19924;-42
2022/11/30 04:53:24;;;;;;;;;;;;;;;19.30;47.60;101832.31;5138844;27;21233;-43
2022/11/30 04:55:50;;;;;;;;;;;;;;;19.29;47.56;101838.91;5142071;27;19938;-43
2022/11/30 04:58:15;;;;;;;;;;;;;;;19.29;47.58;101827.84;5142041;27;19923;-41
2022/11/30 05:00:41;;;;;;;;;;;;;;;19.30;47.59;101828.72;5146126;27;20291;-43
2022/11/30 05:03:07;;;;;;;;;;;;;;;19.29;47.93;101830.63;5141365;27;19984;-43
2022/11/30 05:05:32;;;;;;;;;;;;;;;19.30;47.60;101834.25;5137950;27;19923;-41
2022/11/30 05:07:58;;;;;;;;;;;;;;;19.29;47.59;101838.06;5144461;27;19927;-41
2022/11/30 05:10:24;;;;;;;;;;;;;;;19.29;47.66;101841.66;5121841;27;19927;-41
2022/11/30 05:12:50;;;;;;;;;;;;;;;19.30;47.61;101837.00;5117493;27;19924;-44
2022/11/30 05:15:16;;;;;;;;;;;;;;;19.30;48.01;101839.75;5136702;27;19923;-42
2022/11/30 05:17:41;;;;;;;;;;;;;;;19.30;47.60;101837.00;5138727;27;19945;-41
2022/11/30 05:20:07;;;;;;;;;;;;;;;19.29;47.79;101840.84;5139736;27;19934;-42
2022/11/30 05:22:34;;;;;;;;;;;;;;;19.29;47.68;101838.06;5140381;27;19975;-41
2022/11/30 05:24:59;;;;;;;;;;;;;;;19.30;47.99;101842.53;5140710;27;19974;-41
2022/11/30 05:27:25;;;;;;;;;;;;;;;19.29;47.67;101843.59;5124415;27;20298;-42
2022/11/30 05:29:51;;;;;;;;;;;;;;;19.29;47.68;101844.44;5141687;27;19927;-42
2022/11/30 05:32:16;;;;;;;;;;;;;;;19.29;47.68;101847.19;5123455;27;19923;-42
2022/11/30 05:34:42;;;;;;;;;;;;;;;19.29;47.82;101840.84;5132165;27;20324;-43
2022/11/30 05:37:16;;;;;;;;;;;;;;;19.29;47.91;101843.59;5135813;27;19984;-42
2022/11/30 05:39:42;;;;;;;;;;;;;;;19.29;47.62;101843.59;5143150;27;20347;-41
2022/11/30 05:42:07;;;;;;;;;;;;;;;19.29;47.64;101849.13;5144162;27;19931;-43
2022/11/30 05:44:33;;;;;;;;;;;;;;;19.29;47.88;101851.88;5139155;27;19923;-41
2022/11/30 05:46:58;;;;;;;;;;;;;;;19.29;48.00;101851.88;5137668;27;20432;-43
2022/11/30 05:49:24;;;;;;;;;;;;;;;19.28;47.59;101842.75;5141129;27;19923;-41
2022/11/30 05:51:50;;;;;;;;;;;;;;;19.28;47.62;101847.47;5139435;27;20379;-41
2022/11/30 05:54:15;;;;;;;;;;;;;;;19.27;47.54;101841.09;5134890;27;19927;-41
2022/11/30 05:56:41;;;;;;;;;;;;;;;19.26;47.56;101847.72;5134800;27;21109;-41
2022/11/30 05:59:08;;;;;;;;;;;;;;;19.29;47.52;101851.88;5137826;27;19949;-42
2022/11/30 06:01:33;;;;;;;;;;;;;;;19.27;47.95;101851.31;5140741;27;20018;-41
2022/11/30 06:03:59;;;;;;;;;;;;;;;19.27;47.62;101854.91;5137051;27;19942;-41
2022/11/30 06:06:29;;;;;;;;;;;;;;;19.27;47.88;101857.66;5142801;27;19962;-42
2022/11/30 06:08:55;;;;;;;;;;;;;;;19.28;47.80;101864.03;5138217;27;19923;-43
2022/11/30 06:11:20;;;;;;;;;;;;;;;19.27;47.61;101868.72;5136657;27;19931;-42
2022/11/30 06:13:46;;;;;;;;;;;;;;;19.27;47.74;101865.97;5112242;27;20313;-43
2022/11/30 06:16:12;;;;;;;;;;;;;;;19.28;47.74;101872.31;5136547;27;19931;-41
2022/11/30 06:18:38;;;;;;;;;;;;;;;19.27;47.66;101870.66;5135076;27;20642;-43
2022/11/30 06:21:04;;;;;;;;;;;;;;;19.28;47.99;101864.03;5137052;27;19980;-42
2022/11/30 06:23:30;;;;;;;;;;;;;;;19.27;47.59;101860.44;5116545;27;19987;-41
2022/11/30 06:25:56;;;;;;;;;;;;;;;19.28;47.87;101866.78;5136146;27;20340;-40
2022/11/30 06:28:21;;;;;;;;;;;;;;;19.27;47.61;101867.88;5132420;27;19930;-47
2022/11/30 06:30:47;;;;;;;;;;;;;;;19.28;47.69;101861.25;5131795;27;19927;-42
2022/11/30 06:33:12;;;;;;;;;;;;;;;19.27;47.88;101865.13;5134037;27;19928;-41
2022/11/30 06:35:43;;;;;;;;;;;;;;;19.27;47.59;101865.13;5140430;27;19955;-41
2022/11/30 06:38:09;;;;;;;;;;;;;;;19.27;47.76;101871.47;5119466;27;19934;-41
2022/11/30 06:40:35;;;;;;;;;;;;;;;19.26;47.61;101864.28;5130658;27;19931;-42
2022/11/30 06:43:00;;;;;;;;;;;;;;;19.27;47.68;101870.66;5132507;27;19930;-43
2022/11/30 06:45:26;;;;;;;;;;;;;;;19.27;47.96;101871.47;5129084;27;19930;-43
2022/11/30 06:47:53;;;;;;;;;;;;;;;19.27;47.80;101873.41;5132863;27;20043;-43
2022/11/30 06:50:18;;;;;;;;;;;;;;;19.27;47.95;101873.41;5132990;27;19974;-41
2022/11/30 06:52:44;;;;;;;;;;;;;;;19.26;47.77;101878.09;5134117;27;19939;-41
2022/11/30 06:55:10;;;;;;;;;;;;;;;19.26;47.80;101869.81;5134635;27;19939;-45
2022/11/30 06:57:35;;;;;;;;;;;;;;;19.27;47.92;101867.88;5132818;27;19958;-41
2022/11/30 07:00:01;;;;;;;;;;;;;;;19.26;47.71;101875.34;5127334;27;19930;-43
2022/11/30 07:02:26;;;;;;;;;;;;;;;19.26;47.64;101871.75;5126934;27;19977;-44
2022/11/30 07:04:52;;;;;;;;;;;;;;;19.26;47.80;101875.34;5129234;27;19924;-42
2022/11/30 07:07:17;;;;;;;;;;;;;;;19.26;47.72;101880.03;5134298;27;20656;-41
2022/11/30 07:09:43;;;;;;;;;;;;;;;19.26;47.58;101880.03;5133846;27;19934;-41
2022/11/30 07:12:09;;;;;;;;;;;;;;;19.26;47.71;101877.28;5133897;27;19931;-42
2022/11/30 07:14:34;;;;;;;;;;;;;;;19.28;47.77;101881.44;5130031;27;19930;-41
2022/11/30 07:17:03;;;;;;;;;;;;;;;19.28;47.48;101886.94;5130111;27;19935;-42
2022/11/30 07:19:29;;;;;;;;;;;;;;;19.27;47.55;101884.47;5131472;27;20211;-43
2022/11/30 07:21:55;;;;;;;;;;;;;;;19.27;48.00;101889.97;5129096;27;20025;-43
2022/11/30 07:27:06;;;;;;;;;;;;;;;19.26;47.73;101891.09;5117588;27;20497;-42
2022/11/30 07:29:31;;;;;;;;;;;;;;;19.27;47.63;101895.50;5130745;27;19930;-41
2022/11/30 07:31:57;;;;;;;;;;;;;;;19.26;47.81;101894.69;5132739;27;19934;-43
2022/11/30 07:34:23;;;;;;;;;;;;;;;19.26;47.03;101897.44;5125767;27;19938;-41
2022/11/30 07:36:48;;;;;;;;;;;;;;;19.26;47.62;101899.38;5133604;27;19938;-43
2022/11/30 07:39:14;;;;;;;;;;;;;;;19.25;47.80;101909.56;5123397;27;19980;-41
2022/11/30 07:41:40;;;;;;;;;;;;;;;19.25;47.79;101911.47;5130500;27;20022;-43
2022/11/30 07:44:06;;;;;;;;;;;;;;;19.25;47.81;101912.31;5113661;27;19931;-42
2022/11/30 07:46:34;;;;;;;;;;;;;;;19.25;47.59;101915.06;5128696;27;20298;-42
2022/11/30 07:49:08;;;;;;;;;;;;;;;19.24;47.53;101915.34;5113819;27;20072;-43
2022/11/30 07:57:59;;;;;;;;;;;;;;;19.27;47.02;101928.66;5131118;27;19939;-41
2022/11/30 08:00:24;;;;;;;;;;;;;;;19.27;47.53;101920.38;5131705;27;19932;-43
2022/11/30 08:02:50;;;;;;;;;;;;;;;19.27;47.61;101923.13;5126517;27;19935;-41
2022/11/30 08:05:16;;;;;;;;;;;;;;;19.27;47.42;101920.38;5124343;27;19931;-42
2022/11/30 08:07:41;;;;;;;;;;;;;;;19.26;45.92;101924.22;5119062;27;19931;-41
2022/11/30 08:10:07;;;;;;;;;;;;;;;19.26;46.66;101929.75;5131101;27;20313;-43
2022/11/30 08:12:33;;;;;;;;;;;;;;;19.25;47.54;101928.88;5127205;27;19931;-44
2022/11/30 08:14:59;;;;;;;;;;;;;;;19.24;47.34;101932.75;5128563;27;19931;-48
2022/11/30 08:17:44;;;;;;;;;;;;;;;19.24;47.47;101946.56;5115840;27;19927;-43
2022/11/30 08:20:10;;;;;;;;;;;;;;;19.23;47.57;101942.13;5135055;27;19933;-43
2022/11/30 08:22:36;;;;;;;;;;;;;;;19.23;47.57;101949.59;5131185;27;20426;-44
2022/11/30 08:25:01;;;;;;;;;;;;;;;19.23;47.32;101944.91;5132069;27;19930;-44
2022/11/30 08:27:27;;;;;;;;;;;;;;;19.23;47.60;101949.59;5112431;27;19938;-44
2022/11/30 08:29:52;;;;;;;;;;;;;;;19.22;47.79;101945.16;5131444;27;19931;-43
2022/11/30 08:32:18;;;;;;;;;;;;;;;19.22;47.47;101947.91;5134335;27;19972;-44
2022/11/30 08:34:44;;;;;;;;;;;;;;;19.23;47.45;101949.59;5114269;27;19923;-43
2022/11/30 08:37:09;;;;;;;;;;;;;;;19.23;47.47;101952.34;5132748;27;19931;-43
2022/11/30 08:39:35;;;;;;;;;;;;;;;19.21;47.51;101949.84;5135988;27;20020;-44
2022/11/30 08:42:00;;;;;;;;;;;;;;;19.23;47.45;101953.19;5131024;27;19951;-43
2022/11/30 08:44:27;;;;;;;;;;;;;;;19.23;47.50;101966.16;5125523;27;20039;-43
2022/11/30 08:46:53;;;;;;;;;;;;;;;19.25;47.28;101958.44;5110343;27;20365;-43
2022/11/30 08:49:20;;;;;;;;;;;;;;;19.22;47.68;101945.16;5132183;27;20272;-44
2022/11/30 08:51:48;;;;;;;;;;;;;;;19.22;47.54;101956.22;5132426;27;19971;-44
2022/11/30 08:54:34;;;;;;;;;;;;;;;19.21;47.52;101958.13;5116512;27;20359;-44
2022/11/30 08:56:59;;;;;;;;;;;;;;;19.21;47.43;101960.91;5131543;27;19931;-43
2022/11/30 08:59:25;;;;;;;;;;;;;;;19.21;47.36;101960.91;5135131;27;19931;-44
2022/11/30 09:01:50;;;;;;;;;;;;;;;19.22;47.57;101968.09;5130771;27;19939;-44
2022/11/30 09:04:16;;;;;;;;;;;;;;;19.21;47.49;101969.19;5136009;27;20369;-45
2022/11/30 09:06:42;;;;;;;;;;;;;;;19.21;47.39;101966.41;5128965;27;19931;-43
2022/11/30 09:09:07;;;;;;;;;;;;;;;19.21;47.50;101962.78;5128613;27;19923;-43
2022/11/30 09:11:33;;;;;;;;;;;;;;;19.22;47.56;101972.78;5123314;27;20020;-44
2022/11/30 09:13:59;;;;;;;;;;;;;;;19.22;47.37;101968.09;5129350;27;20168;-44
2022/11/30 09:16:25;;;;;;;;;;;;;;;19.22;47.45;101972.78;5107178;27;20070;-45
2022/11/30 09:18:51;;;;;;;;;;;;;;;19.21;47.79;101971.09;5127025;27;19939;-44
2022/11/30 09:21:20;;;;;;;;;;;;;;;19.23;46.44;101966.16;5131802;27;19930;-45
2022/11/30 09:23:46;;;;;;;;;;;;;;;19.22;47.29;101987.41;5130278;27;19955;-44
2022/11/30 09:26:13;;;;;;;;;;;;;;;19.25;47.22;101988.81;5135610;27;19971;-43
2022/11/30 09:28:39;;;;;;;;;;;;;;;19.23;47.28;101982.72;5117841;27;20001;-49
2022/11/30 09:31:05;;;;;;;;;;;;;;;19.24;47.47;101979.69;5110630;27;20374;-48
2022/11/30 09:33:31;;;;;;;;;;;;;;;19.25;46.87;101983.28;5108001;27;19928;-48
2022/11/30 09:35:57;;;;;;;;;;;;;;;19.26;47.23;101984.97;5103606;27;19935;-49
2022/11/30 09:38:22;;;;;;;;;;;;;;;19.27;47.24;101992.16;5120023;27;19927;-47
2022/11/30 09:40:51;;;;;;;;;;;;;;;19.27;47.27;101989.41;5124210;27;19942;-43
2022/11/30 09:43:37;;;;;;;;;;;;;;;19.26;47.28;101988.56;5125995;27;19999;-44
2022/11/30 09:46:04;;;;;;;;;;;;;;;19.26;47.34;101985.81;5110741;27;20468;-44
2022/11/30 09:48:49;;;;;;;;;;;;;;;19.27;47.40;101981.13;5127872;27;19953;-43
2022/11/30 09:51:18;;;;;;;;;;;;;;;19.27;47.78;101983.88;5115610;27;19975;-47
2022/11/30 09:53:44;;;;;;;;;;;;;;;19.27;47.53;101987.47;5128323;27;19923;-45
2022/11/30 09:56:27;;;;;;;;;;;;;;;19.27;47.33;101981.13;5110952;27;19942;-44
2022/11/30 09:58:55;;;;;;;;;;;;;;;19.32;47.01;101978.44;5108767;27;20029;-56
2022/11/30 10:01:21;;;;;;;;;;;;;;;19.38;46.65;101976.56;5110374;27;19962;-44
2022/11/30 10:03:47;;;;;;;;;;;;;;;19.35;47.40;101968.81;5130966;27;19930;-43
2022/11/30 10:06:17;;;;;;;;;;;;;;;19.35;47.37;101974.31;5134302;27;19931;-44
2022/11/30 10:08:53;;;;;;;;;;;;;;;19.33;47.42;101970.97;5133086;27;20037;-45
2022/11/30 10:11:22;;;;;;;;;;;;;;;19.34;47.57;101972.63;5108015;27;20450;-43
2022/11/30 10:13:54;;;;;;;;;;;;;;;19.33;47.59;101969.03;5134630;27;20765;-43
2022/11/30 10:16:22;;;;;;;;;;;;;;;19.33;47.75;101971.81;5130536;27;19942;-44
2022/11/30 10:18:52;;;;;;;;;;;;;;;19.33;47.44;101982.84;5130792;27;20786;-45
2022/11/30 10:21:37;;;;;;;;;;;;;;;19.34;47.71;101972.63;5129351;27;19969;-46
2022/11/30 10:24:11;;;;;;;;;;;;;;;19.32;47.47;101972.91;5105992;27;19970;-44
2022/11/30 10:26:38;;;;;;;;;;;;;;;19.34;47.45;101967.94;5105682;27;19983;-44
2022/11/30 10:29:19;;;;;;;;;;;;;;;19.34;47.78;101972.63;5132533;27;20023;-43
2022/11/30 10:31:47;;;;;;;;;;;;;;;19.34;47.82;101970.69;5109242;27;19959;-44
2022/11/30 10:34:18;;;;;;;;;;;;;;;19.34;47.48;101973.47;5107897;27;19938;-43
2022/11/30 10:36:44;;;;;;;;;;;;;;;19.36;47.46;101973.22;5127688;27;20006;-43
2022/11/30 10:39:13;;;;;;;;;;;;;;;19.35;47.68;101969.63;5120917;27;20029;-44
2022/11/30 10:41:42;;;;;;;;;;;;;;;19.36;46.56;101973.22;5101414;27;19932;-48
2022/11/30 10:44:11;;;;;;;;;;;;;;;19.36;47.49;101963.00;5098346;27;19975;-44
2022/11/30 10:46:37;;;;;;;;;;;;;;;19.36;47.53;101962.19;5128423;27;20733;-45
2022/11/30 10:49:04;;;;;;;;;;;;;;;19.35;47.86;101958.59;5111779;27;20434;-44
2022/11/30 10:51:30;;;;;;;;;;;;;;;19.36;47.56;101957.47;5122471;27;19970;-44
2022/11/30 10:53:56;;;;;;;;;;;;;;;19.36;47.60;101960.25;5111515;27;19923;-45
2022/11/30 10:56:22;;;;;;;;;;;;;;;19.37;47.63;101961.06;5131085;27;19927;-43
2022/11/30 10:58:50;;;;;;;;;;;;;;;19.39;47.45;101961.66;5134894;27;19927;-44
2022/11/30 11:01:36;;;;;;;;;;;;;;;19.38;47.78;101959.97;5128713;27;20010;-44
2022/11/30 11:04:21;;;;;;;;;;;;;;;19.38;47.42;101963.56;5120319;27;19932;-44
2022/11/30 11:06:51;;;;;;;;;;;;;;;19.39;47.21;101956.97;5114948;27;19930;-44
2022/11/30 11:12:03;;;;;;;;;;;;;;;19.39;47.44;101958.91;5150864;27;19933;-41
2022/11/30 11:14:28;;;;;;;;;;;;;;;19.38;47.55;101962.75;5134243;27;20379;-42
2022/11/30 11:17:03;;;;;;;;;;;;;;;19.37;47.84;101950.84;5119436;27;19943;-41
2022/11/30 11:19:32;;;;;;;;;;;;;;;19.38;47.59;101959.97;5134254;27;19962;-43
2022/11/30 11:21:58;;;;;;;;;;;;;;;19.38;47.75;101960.81;5133228;27;20776;-43
2022/11/30 11:24:25;;;;;;;;;;;;;;;19.37;47.80;101956.38;5118784;27;20363;-43
2022/11/30 11:26:50;;;;;;;;;;;;;;;19.38;47.61;101954.44;5118352;27;20636;-42
2022/11/30 11:29:30;;;;;;;;;;;;;;;19.39;47.53;101961.66;5136958;27;19924;-41
2022/11/30 11:32:15;;;;;;;;;;;;;;;19.37;47.71;101967.44;5137812;27;19976;-42
2022/11/30 11:34:42;;;;;;;;;;;;;;;19.38;47.74;101957.22;5122753;27;20015;-41
2022/11/30 11:37:19;;;;;;;;;;;;;;;19.40;47.36;101966.09;5137295;27;19927;-43
2022/11/30 11:40:01;;;;;;;;;;;;;;;19.39;47.54;101958.91;5118032;27;19993;-41
2022/11/30 11:42:30;;;;;;;;;;;;;;;19.38;47.68;101965.50;5116403;27;20275;-41
2022/11/30 11:44:56;;;;;;;;;;;;;;;19.38;47.62;101959.97;5111999;27;19971;-41
2022/11/30 11:47:38;;;;;;;;;;;;;;;19.38;47.37;101966.34;5124047;27;19953;-42
2022/11/30 11:50:05;;;;;;;;;;;;;;;19.39;47.35;101961.66;5129975;27;20088;-41
2022/11/30 11:52:31;;;;;;;;;;;;;;;19.38;47.44;101965.50;5129055;27;19987;-40
2022/11/30 11:54:59;;;;;;;;;;;;;;;19.38;47.38;101971.03;5128153;27;20459;-41
2022/11/30 11:57:27;;;;;;;;;;;;;;;19.38;47.69;101960.81;5115339;27;20014;-41
2022/11/30 12:00:04;;;;;;;;;;;;;;;19.37;47.33;101964.66;5135787;27;19962;-41
2022/11/30 12:02:38;;;;;;;;;;;;;;;19.16;45.30;101969.09;5107611;27;19959;-41
2022/11/30 12:05:08;;;;;;;;;;;;;;;19.32;46.26;101969.31;5099050;27;19966;-43
2022/11/30 12:07:37;;;;;;;;;;;;;;;19.36;47.11;101965.78;5111727;27;20022;-43
2022/11/30 12:10:23;;;;;;;;;;;;;;;19.37;47.18;101964.66;5114597;27;19939;-42
2022/11/30 12:13:11;;;;;;;;;;;;;;;19.38;47.00;101971.84;5085347;27;19973;-42
2022/11/30 12:15:41;;;;;;;;;;;;;;;19.38;47.43;101973.78;5091750;27;19938;-40
2022/11/30 12:18:11;;;;;;;;;;;;;;;19.38;47.14;101969.09;5110609;27;19965;-46
2022/11/30 12:20:55;;;;;;;;;;;;;;;19.38;46.54;101971.03;5111792;27;19966;-42
2022/11/30 12:23:32;;;;;;;;;;;;;;;19.39;47.32;101961.66;5104907;28;20018;-42
2022/11/30 12:28:43;;;;;;;;;;;;;;;19.39;45.39;101968.03;5089315;27;20267;-44
2022/11/30 12:31:11;;;;;;;;;;;;;;;19.40;45.91;101964.16;5074817;28;20070;-43
2022/11/30 12:33:57;;;;;;;;;;;;;;;19.40;46.48;101969.69;5067782;28;19932;-46
2022/11/30 12:36:30;;;;;;;;;;;;;;;19.39;46.72;101968.03;5046575;28;20016;-45
2022/11/30 12:38:58;;;;;;;;;;;;;;;19.40;46.65;101969.69;5066516;28;19964;-45
2022/11/30 12:41:37;;;;;;;;;;;;;;;19.41;45.96;101970.53;5049593;28;20019;-43
2022/11/30 12:44:07;;;;;;;;;;;;;;;19.22;45.53;101973.59;5060261;28;20011;-47
2022/11/30 12:46:52;;;;;;;;;;;;;;;19.33;46.47;101965.44;5069902;28;19969;-43
2022/11/30 12:49:38;;;;;;;;;;;;;;;19.39;46.59;101973.56;5057962;28;20027;-44
2022/11/30 12:52:23;;;;;;;;;;;;;;;19.40;45.34;101975.22;5054662;28;19963;-44